Time;durP1;ratioP1;P1;durP2;ratioP2;P2;SDS_P1;SDS_P2;PMS_P1;PMS_P2;Temp;Humidity;BMP_temperature;BMP_pressure;BME280_temperature;BME280_humidity;BME280_pressure;Samples;Min_cycle;Max_cycle;Signal;HPM_P1;HPM_P2
2021/03/14 00:00:22;;;;;;;11.52;6.60;;;256.90;1612.80;;;;;;4976016;28;19914;-72
2021/03/14 00:02:47;;;;;;;13.15;6.65;;;256.90;1612.80;;;;;;4981415;28;20035;-75
2021/03/14 00:05:13;;;;;;;11.10;5.95;;;281.60;1638.40;;;;;;4982267;28;20027;-76
2021/03/14 00:07:40;;;;;;;10.93;5.95;;;256.90;1612.80;;;;;;4977310;28;20121;-79
2021/03/14 00:10:11;;;;;;;15.98;5.85;;;281.60;1638.40;;;;;;4973632;28;20023;-74
2021/03/14 00:12:36;;;;;;;10.75;6.40;;;256.90;1638.40;;;;;;4970176;28;20027;-70
2021/03/14 00:15:03;;;;;;;10.48;5.45;;;281.60;1638.40;;;;;;4969786;28;20301;-76
2021/03/14 00:17:29;;;;;;;12.75;6.38;;;281.60;1638.40;;;;;;4975058;28;20034;-78
2021/03/14 00:19:54;;;;;;;11.50;5.95;;;281.60;1664.00;;;;;;4986817;28;20038;-77
2021/03/14 00:22:22;;;;;;;13.48;8.52;;;256.90;1638.40;;;;;;4983430;28;20388;-79
2021/03/14 00:24:48;;;;;;;18.20;10.30;;;281.60;1638.40;;;;;;4974660;28;20420;-79
2021/03/14 00:27:13;;;;;;;10.23;6.22;;;281.60;1638.40;;;;;;4969298;28;20536;-80
2021/03/14 00:29:39;;;;;;;10.40;5.75;;;256.90;1612.80;;;;;;4974552;28;20029;-73
2021/03/14 00:32:05;;;;;;;17.88;7.68;;;256.90;1612.80;;;;;;4968516;28;20038;-79
2021/03/14 00:34:31;;;;;;;10.07;5.78;;;256.90;1612.80;;;;;;4971973;28;20023;-80
2021/03/14 00:36:57;;;;;;;10.18;5.60;;;256.90;1612.80;;;;;;4973935;28;20058;-77
2021/03/14 00:39:23;;;;;;;11.40;5.72;;;256.80;1612.80;;;;;;4974629;28;20090;-72
2021/03/14 00:41:49;;;;;;;12.90;5.50;;;256.80;1638.40;;;;;;4971644;28;20031;-77
2021/03/14 00:44:15;;;;;;;10.90;5.70;;;256.80;1638.40;;;;;;4971663;28;20046;-73
2021/03/14 00:46:41;;;;;;;11.05;5.40;;;256.70;1664.00;;;;;;4966751;28;20476;-76
2021/03/14 00:49:06;;;;;;;8.88;5.38;;;256.70;1664.00;;;;;;4962633;28;20135;-74
2021/03/14 00:51:32;;;;;;;10.75;5.07;;;256.60;1664.00;;;;;;4973897;28;20027;-77
2021/03/14 00:53:58;;;;;;;10.90;5.63;;;256.60;1664.00;;;;;;4953224;28;20047;-77
2021/03/14 00:56:25;;;;;;;8.85;5.40;;;256.70;1664.00;;;;;;4953286;28;20070;-78
2021/03/14 00:58:51;;;;;;;9.50;5.10;;;256.70;1664.00;;;;;;4951854;28;20054;-79
2021/03/14 01:01:17;;;;;;;12.40;5.18;;;256.70;1664.00;;;;;;4949907;28;20511;-75
2021/03/14 01:03:43;;;;;;;9.77;5.40;;;256.70;1689.60;;;;;;4945073;28;20043;-72
2021/03/14 01:06:10;;;;;;;10.60;4.53;;;256.70;1664.00;;;;;;4953507;28;20078;-80
2021/03/14 01:08:36;;;;;;;8.65;4.93;;;256.70;1689.60;;;;;;4946880;28;20060;-72
2021/03/14 01:11:01;;;;;;;8.15;4.30;;;256.70;1689.60;;;;;;4949577;28;20076;-80
2021/03/14 01:13:27;;;;;;;10.80;4.80;;;256.70;1689.60;;;;;;4946297;28;20374;-78
2021/03/14 01:15:53;;;;;;;8.43;4.68;;;256.70;1689.60;;;;;;4952003;28;20029;-80
2021/03/14 01:18:19;;;;;;;8.15;4.85;;;256.80;1664.00;;;;;;4953745;28;20472;-72
2021/03/14 01:20:44;;;;;;;11.82;6.50;;;256.70;1689.60;;;;;;4953175;28;20031;-75
2021/03/14 01:23:10;;;;;;;7.15;4.25;;;256.70;1689.60;;;;;;4952826;28;20040;-71
2021/03/14 01:25:36;;;;;;;7.75;4.43;;;256.70;1689.60;;;;;;4952426;28;20075;-71
2021/03/14 01:28:02;;;;;;;8.02;4.95;;;256.70;1689.60;;;;;;4949371;28;20114;-78
2021/03/14 01:30:28;;;;;;;10.20;4.32;;;256.60;1689.60;;;;;;4939935;28;20023;-79
2021/03/14 01:32:54;;;;;;;7.93;4.50;;;256.50;1715.20;;;;;;4945232;28;20038;-80
2021/03/14 01:35:20;;;;;;;10.20;5.25;;;256.50;1715.20;;;;;;4947275;28;20130;-72
2021/03/14 01:37:46;;;;;;;9.30;5.28;;;256.40;1715.20;;;;;;4954405;28;20027;-78
2021/03/14 01:40:15;;;;;;;12.18;4.20;;;256.40;1715.20;;;;;;4953748;28;20499;-71
2021/03/14 01:42:40;;;;;;;11.63;4.90;;;256.40;1715.20;;;;;;4954070;28;20031;-75
2021/03/14 01:45:07;;;;;;;9.02;4.55;;;256.50;1715.20;;;;;;4952939;28;20041;-76
2021/03/14 01:47:35;;;;;;;9.68;4.25;;;256.50;1715.20;;;;;;4951894;28;20031;-74
2021/03/14 01:50:04;;;;;;;8.52;4.40;;;256.60;1715.20;;;;;;4946228;28;20031;-80
2021/03/14 01:52:31;;;;;;;9.18;4.65;;;256.70;1715.20;;;;;;4951779;28;20046;-80
2021/03/14 01:54:57;;;;;;;11.05;4.53;;;256.70;1715.20;;;;;;4971404;28;20031;-77
2021/03/14 01:57:23;;;;;;;7.55;4.00;;;256.70;1715.20;;;;;;4966394;28;20031;-81
2021/03/14 01:59:49;;;;;;;6.35;3.63;;;256.70;1715.20;;;;;;4958920;28;20036;-77
2021/03/14 02:02:14;;;;;;;7.57;3.70;;;256.80;1715.20;;;;;;4969694;28;20027;-78
2021/03/14 02:04:43;;;;;;;11.50;5.15;;;256.90;1689.60;;;;;;4972581;28;20066;-73
2021/03/14 02:07:13;;;;;;;8.35;4.63;;;281.60;1715.20;;;;;;4973387;28;20057;-72
2021/03/14 02:09:39;;;;;;;9.93;4.53;;;281.60;1715.20;;;;;;4964750;28;20027;-72
2021/03/14 02:12:08;;;;;;;10.15;3.88;;;281.60;1715.20;;;;;;4974857;28;20026;-72
2021/03/14 02:14:38;;;;;;;9.85;4.18;;;281.60;1715.20;;;;;;4976961;28;20023;-73
2021/03/14 02:17:08;;;;;;;8.93;3.40;;;281.60;1715.20;;;;;;4969453;28;20080;-71
2021/03/14 02:19:37;;;;;;;5.75;3.10;;;256.90;1689.60;;;;;;4977147;28;20027;-80
2021/03/14 02:22:04;;;;;;;4.93;3.35;;;256.90;1689.60;;;;;;4969668;28;20093;-82
2021/03/14 02:24:45;;;;;;;5.95;3.40;;;281.60;1715.20;;;;;;4973699;28;20133;-79
2021/03/14 02:27:12;;;;;;;7.65;3.45;;;281.60;1715.20;;;;;;4971645;28;20452;-72
2021/03/14 02:29:41;;;;;;;5.95;3.25;;;281.60;1715.20;;;;;;4974525;28;20031;-70
2021/03/14 02:32:09;;;;;;;6.10;3.47;;;281.60;1740.80;;;;;;4967638;28;20110;-78
2021/03/14 02:34:45;;;;;;;6.28;3.80;;;281.60;1740.80;;;;;;4976920;28;20034;-79
2021/03/14 02:37:12;;;;;;;9.05;3.50;;;281.70;1740.80;;;;;;4963461;28;20035;-77
2021/03/14 02:39:40;;;;;;;6.82;3.22;;;281.80;1740.80;;;;;;4968318;28;20022;-79
2021/03/14 02:42:09;;;;;;;7.22;3.70;;;281.80;1740.80;;;;;;4967023;28;20034;-81
2021/03/14 02:44:38;;;;;;;7.55;3.40;;;281.90;1715.20;;;;;;4976722;28;20416;-80
2021/03/14 02:47:06;;;;;;;5.95;3.40;;;282.00;1715.20;;;;;;4964034;28;20027;-79
2021/03/14 02:49:34;;;;;;;7.50;3.72;;;282.10;1715.20;;;;;;4962032;28;20054;-72
2021/03/14 02:52:06;;;;;;;6.13;3.30;;;282.10;1715.20;;;;;;4964585;28;20505;-77
2021/03/14 02:54:33;;;;;;;5.65;3.17;;;282.20;1689.60;;;;;;4975836;28;20039;-74
2021/03/14 02:57:00;;;;;;;4.13;2.63;;;282.30;1689.60;;;;;;4965435;28;20110;-75
2021/03/14 02:59:26;;;;;;;5.13;2.70;;;282.40;1664.00;;;;;;4976398;28;20027;-77
2021/03/14 03:01:53;;;;;;;5.60;2.92;;;282.50;1664.00;;;;;;4972157;28;20102;-76
2021/03/14 03:04:23;;;;;;;7.90;2.88;;;282.50;1664.00;;;;;;4975242;28;20038;-77
2021/03/14 03:06:50;;;;;;;6.10;3.25;;;307.20;1689.60;;;;;;4975852;28;20093;-71
2021/03/14 03:09:17;;;;;;;6.43;3.10;;;307.20;1689.60;;;;;;4971199;28;20031;-69
2021/03/14 03:11:44;;;;;;;6.15;3.30;;;307.20;1664.00;;;;;;4969418;28;20085;-70
2021/03/14 03:14:16;;;;;;;7.43;3.40;;;307.20;1664.00;;;;;;4989785;28;20046;-75
2021/03/14 03:16:43;;;;;;;6.90;3.58;;;307.20;1664.00;;;;;;4961297;28;20213;-73
2021/03/14 03:19:15;;;;;;;6.38;3.40;;;307.20;1664.00;;;;;;4986324;28;20495;-72
2021/03/14 03:21:43;;;;;;;7.50;3.10;;;307.20;1664.00;;;;;;4964248;28;20062;-78
2021/03/14 03:24:10;;;;;;;5.75;2.75;;;282.50;1612.80;;;;;;4972043;28;20431;-77
2021/03/14 03:26:47;;;;;;;4.60;2.90;;;282.40;1612.80;;;;;;4966895;28;20476;-77
2021/03/14 03:29:17;;;;;;;5.45;3.03;;;282.40;1612.80;;;;;;4970957;28;20045;-74
2021/03/14 03:31:45;;;;;;;4.65;3.00;;;282.40;1612.80;;;;;;4973916;28;20114;-75
2021/03/14 03:34:12;;;;;;;6.15;2.83;;;282.40;1612.80;;;;;;4971357;28;20050;-81
2021/03/14 03:36:39;;;;;;;5.75;2.95;;;282.20;1612.80;;;;;;4970362;28;20114;-70
2021/03/14 03:39:10;;;;;;;6.88;2.97;;;282.40;1612.80;;;;;;4974454;28;20039;-76
2021/03/14 03:42:03;;;;;;;5.55;2.63;;;282.40;1587.20;;;;;;4965003;28;20024;-78
2021/03/14 03:44:33;;;;;;;6.20;2.65;;;282.50;1561.60;;;;;;4960993;28;20047;-78
2021/03/14 03:47:01;;;;;;;4.28;2.55;;;282.50;1587.20;;;;;;4962389;28;20061;-70
2021/03/14 03:49:30;;;;;;;4.40;2.50;;;307.20;1587.20;;;;;;4975290;28;20018;-70
2021/03/14 03:51:56;;;;;;;4.43;2.40;;;307.30;1587.20;;;;;;4968942;28;20118;-77
2021/03/14 03:54:23;;;;;;;4.63;2.83;;;307.30;1561.60;;;;;;4973535;28;20373;-77
2021/03/14 03:56:54;;;;;;;3.90;2.35;;;307.30;1587.20;;;;;;4972659;28;20026;-73
2021/03/14 03:59:21;;;;;;;4.90;2.70;;;307.30;1561.60;;;;;;4987706;28;20026;-74
2021/03/14 04:01:49;;;;;;;4.05;2.25;;;307.40;1561.60;;;;;;4973864;28;20027;-79
2021/03/14 04:04:15;;;;;;;2.58;2.08;;;307.40;1561.60;;;;;;4975256;28;20035;-74
2021/03/14 04:06:42;;;;;;;5.30;2.60;;;307.40;1561.60;;;;;;4974992;28;20543;-78
2021/03/14 04:09:08;;;;;;;4.70;2.42;;;307.40;1561.60;;;;;;4965709;28;20479;-69
2021/03/14 04:11:37;;;;;;;3.33;2.40;;;307.50;1561.60;;;;;;4967083;28;20110;-73
2021/03/14 04:14:04;;;;;;;4.97;2.38;;;307.50;1536.00;;;;;;4978344;28;20388;-77
2021/03/14 04:16:30;;;;;;;4.13;2.55;;;307.50;1536.00;;;;;;4978753;28;20019;-79
2021/03/14 04:18:59;;;;;;;4.50;2.72;;;307.50;1536.00;;;;;;4973354;28;20073;-75
2021/03/14 04:21:26;;;;;;;4.35;2.38;;;307.60;1536.00;;;;;;4968609;28;20062;-79
2021/03/14 04:23:53;;;;;;;3.80;2.38;;;307.60;1561.60;;;;;;4968940;28;20043;-76
2021/03/14 04:26:21;;;;;;;8.15;2.70;;;307.60;1561.60;;;;;;4967175;28;20047;-76
2021/03/14 04:28:50;;;;;;;3.67;2.28;;;307.60;1536.00;;;;;;4970268;28;20023;-76
2021/03/14 04:31:17;;;;;;;4.35;2.55;;;307.60;1561.60;;;;;;4962146;28;20038;-75
2021/03/14 04:33:44;;;;;;;5.30;2.33;;;307.60;1536.00;;;;;;4970541;28;20030;-74
2021/03/14 04:36:11;;;;;;;4.55;2.40;;;307.60;1536.00;;;;;;4962579;28;20031;-76
2021/03/14 04:38:39;;;;;;;18.75;11.95;;;307.60;1561.60;;;;;;4967895;28;20103;-79
2021/03/14 04:41:05;;;;;;;5.25;3.22;;;307.60;1536.00;;;;;;4969843;28;20034;-76
2021/03/14 04:43:32;;;;;;;5.43;3.60;;;307.50;1561.60;;;;;;4973421;28;20034;-76
2021/03/14 04:45:59;;;;;;;5.40;2.95;;;307.60;1561.60;;;;;;4972571;28;20039;-79
2021/03/14 04:48:25;;;;;;;5.22;3.10;;;307.60;1536.00;;;;;;4974417;28;20027;-73
2021/03/14 04:50:53;;;;;;;5.13;3.00;;;307.80;1536.00;;;;;;4968182;28;20027;-74
2021/03/14 04:53:21;;;;;;;8.68;6.20;;;307.60;1561.60;;;;;;4958006;28;20035;-80
2021/03/14 04:55:48;;;;;;;4.80;2.95;;;307.60;1561.60;;;;;;4962797;28;20026;-78
2021/03/14 04:58:18;;;;;;;6.35;3.00;;;307.50;1561.60;;;;;;4973991;28;20035;-76
2021/03/14 05:00:44;;;;;;;5.38;3.20;;;307.50;1561.60;;;;;;4968869;28;20431;-77
2021/03/14 05:03:13;;;;;;;6.25;3.03;;;307.60;1561.60;;;;;;4990919;28;20049;-75
2021/03/14 05:05:42;;;;;;;6.25;3.28;;;307.60;1561.60;;;;;;4962327;28;20027;-79
2021/03/14 05:08:10;;;;;;;8.68;3.00;;;307.50;1587.20;;;;;;4969766;28;20598;-73
2021/03/14 05:10:38;;;;;;;3.95;2.83;;;307.60;1587.20;;;;;;4969610;28;20069;-68
2021/03/14 05:13:05;;;;;;;4.90;3.00;;;307.60;1587.20;;;;;;4972333;28;20023;-69
2021/03/14 05:15:31;;;;;;;5.60;3.08;;;307.60;1587.20;;;;;;4973187;28;20485;-73
2021/03/14 05:17:57;;;;;;;6.97;3.40;;;307.60;1587.20;;;;;;4972994;28;20031;-76
2021/03/14 05:20:23;;;;;;;6.65;3.08;;;307.60;1587.20;;;;;;4971488;28;20037;-76
2021/03/14 05:22:50;;;;;;;5.28;3.20;;;307.60;1587.20;;;;;;4972059;28;20041;-73
2021/03/14 05:25:18;;;;;;;5.72;3.40;;;307.60;1612.80;;;;;;4967476;28;20023;-75
2021/03/14 05:27:49;;;;;;;7.10;3.30;;;307.60;1612.80;;;;;;4970128;28;20034;-71
2021/03/14 05:30:23;;;;;;;5.07;3.28;;;307.60;1612.80;;;;;;4973029;28;20019;-70
2021/03/14 05:32:51;;;;;;;5.53;3.55;;;307.60;1612.80;;;;;;4972286;28;20502;-70
2021/03/14 05:35:19;;;;;;;5.88;3.80;;;307.60;1612.80;;;;;;4971982;28;20026;-71
2021/03/14 05:37:45;;;;;;;9.50;4.68;;;307.70;1612.80;;;;;;4970044;28;20101;-71
2021/03/14 05:40:12;;;;;;;14.32;6.75;;;307.60;1638.40;;;;;;4970935;28;20022;-73
2021/03/14 05:42:39;;;;;;;11.02;5.63;;;307.60;1664.00;;;;;;4969773;28;20031;-74
2021/03/14 05:45:07;;;;;;;46.70;28.50;;;307.80;1766.40;;;;;;4971985;28;20401;-70
2021/03/14 05:47:32;;;;;;;10.20;5.25;;;307.60;1792.00;;;;;;4971276;28;20030;-71
2021/03/14 05:49:58;;;;;;;8.32;4.38;;;307.60;1740.80;;;;;;4974895;28;20141;-71
2021/03/14 05:52:24;;;;;;;7.00;4.38;;;307.50;1740.80;;;;;;4970841;28;20042;-70
2021/03/14 05:54:54;;;;;;;6.82;3.75;;;307.50;1715.20;;;;;;4970996;28;20026;-71
2021/03/14 05:57:19;;;;;;;7.57;3.97;;;307.50;1715.20;;;;;;4971035;28;20022;-72
2021/03/14 05:59:52;;;;;;;7.38;3.90;;;307.50;1689.60;;;;;;4971288;28;20392;-70
2021/03/14 06:02:19;;;;;;;6.68;4.07;;;307.60;1689.60;;;;;;4970604;28;20023;-73
2021/03/14 06:04:52;;;;;;;6.68;4.40;;;307.60;1715.20;;;;;;4981479;28;20045;-68
2021/03/14 06:07:18;;;;;;;6.10;4.00;;;307.60;1689.60;;;;;;4971220;28;20031;-68
2021/03/14 06:09:44;;;;;;;6.35;4.13;;;307.70;1689.60;;;;;;4971300;28;20038;-70
2021/03/14 06:12:15;;;;;;;7.35;4.35;;;307.70;1689.60;;;;;;4970877;28;20027;-67
2021/03/14 06:14:41;;;;;;;6.60;3.97;;;307.80;1689.60;;;;;;4971947;28;20025;-78
2021/03/14 06:17:07;;;;;;;7.95;4.47;;;307.90;1689.60;;;;;;4970729;28;20030;-72
2021/03/14 06:19:33;;;;;;;8.13;4.45;;;308.00;1664.00;;;;;;4969556;28;20027;-70
2021/03/14 06:22:19;;;;;;;7.65;4.53;;;308.00;1664.00;;;;;;4972969;28;20460;-69
2021/03/14 06:24:45;;;;;;;7.35;4.35;;;308.10;1664.00;;;;;;4971260;28;20125;-70
2021/03/14 06:27:11;;;;;;;8.70;4.40;;;308.10;1664.00;;;;;;4970816;28;20031;-70
2021/03/14 06:29:40;;;;;;;8.90;4.30;;;308.10;1664.00;;;;;;4970956;28;20022;-70
2021/03/14 06:32:06;;;;;;;7.50;3.97;;;332.80;1664.00;;;;;;4969326;28;20062;-71
2021/03/14 06:34:39;;;;;;;9.60;4.13;;;332.90;1664.00;;;;;;4971744;28;20504;-69
2021/03/14 06:37:07;;;;;;;10.20;4.47;;;333.00;1638.40;;;;;;4970585;28;20472;-70
2021/03/14 06:39:35;;;;;;;7.18;4.75;;;333.00;1638.40;;;;;;4971443;28;20088;-71
2021/03/14 06:42:01;;;;;;;8.80;4.70;;;333.30;1689.60;;;;;;4972016;28;20019;-76
2021/03/14 06:44:32;;;;;;;9.15;4.35;;;358.70;1587.20;;;;;;4970963;28;20177;-74
2021/03/14 06:46:59;;;;;;;8.02;4.60;;;384.60;1510.40;;;;;;4976743;28;20077;-74
2021/03/14 06:49:27;;;;;;;7.82;4.68;;;;;;;;;;4971807;28;20535;-71
2021/03/14 06:51:53;;;;;;;8.88;4.30;;;;;;;;;;4974324;28;20023;-70
2021/03/14 06:54:21;;;;;;;7.35;4.60;;;;;;;;;;4972952;28;20527;-71
2021/03/14 06:57:08;;;;;;;9.52;4.85;;;410.40;1331.20;;;;;;4974559;28;20098;-73
2021/03/14 06:59:44;;;;;;;7.05;4.20;;;461.20;1305.60;;;;;;4975374;28;20034;-70
2021/03/14 07:02:15;;;;;;;8.45;4.00;;;486.60;1356.80;;;;;;4974679;28;20026;-71
2021/03/14 07:04:50;;;;;;;6.05;4.15;;;487.20;1177.60;;;;;;4973026;28;20038;-72
2021/03/14 07:07:18;;;;;;;8.05;3.72;;;;;;;;;;4975054;28;20026;-67
2021/03/14 07:09:45;;;;;;;6.47;3.90;;;;;;;;;;4964688;28;20027;-67
2021/03/14 07:12:21;;;;;;;7.57;4.20;;;;;;;;;;4973645;28;20062;-67
2021/03/14 07:14:56;;;;;;;7.57;4.13;;;563.60;998.40;;;;;;4977565;28;20436;-66
2021/03/14 07:18:00;;;;;;;8.77;4.40;;;538.40;998.40;;;;;;4974576;28;20022;-70
2021/03/14 07:20:31;;;;;;;8.25;3.85;;;512.60;1075.20;;;;;;4971641;28;20027;-69
2021/03/14 07:23:02;;;;;;;7.78;3.85;;;486.90;1126.40;;;;;;4990358;28;20038;-69
2021/03/14 07:25:29;;;;;;;10.43;4.30;;;486.40;1177.60;;;;;;4973487;28;20027;-67
2021/03/14 07:27:55;;;;;;;7.63;4.18;;;461.30;1203.20;;;;;;4973024;28;20027;-67
2021/03/14 07:30:27;;;;;;;13.00;4.68;;;461.10;1305.60;;;;;;4973102;28;20334;-75
2021/03/14 07:32:53;;;;;;;11.38;4.65;;;461.00;1228.80;;;;;;4982078;28;20038;-70
2021/03/14 07:35:21;;;;;;;6.70;4.45;;;461.10;1254.40;;;;;;4975033;28;20030;-69
2021/03/14 07:37:52;;;;;;;7.22;4.30;;;460.90;1254.40;;;;;;4979438;28;20385;-73
2021/03/14 07:40:20;;;;;;;7.07;4.32;;;436.10;1228.80;;;;;;4970416;28;21753;-67
2021/03/14 07:42:46;;;;;;;9.85;4.35;;;461.10;1254.40;;;;;;4974376;28;20031;-73
2021/03/14 07:45:14;;;;;;;8.70;4.93;;;461.00;1254.40;;;;;;4981119;28;20034;-68
2021/03/14 07:47:41;;;;;;;6.07;3.72;;;435.90;1254.40;;;;;;4969638;28;20388;-68
2021/03/14 07:50:12;;;;;;;8.85;3.97;;;435.50;1280.00;;;;;;4975582;28;20051;-71
2021/03/14 07:52:40;;;;;;;9.45;3.90;;;410.30;1331.20;;;;;;4973878;28;20069;-70
2021/03/14 07:55:27;;;;;;;9.70;3.92;;;410.20;1305.60;;;;;;4972850;28;20037;-71
2021/03/14 07:57:53;;;;;;;8.88;4.22;;;410.00;1331.20;;;;;;4975987;28;20535;-67
2021/03/14 08:00:31;;;;;;;13.35;5.45;;;409.90;1356.80;;;;;;4969171;28;20031;-67
2021/03/14 08:02:58;;;;;;;8.32;6.05;;;409.80;1382.40;;;;;;4971538;28;20039;-67
2021/03/14 08:05:51;;;;;;;7.82;3.45;;;409.60;1408.00;;;;;;4975645;28;20027;-67
2021/03/14 08:08:17;;;;;;;8.85;3.95;;;384.70;1408.00;;;;;;4971184;28;20515;-69
2021/03/14 08:10:46;;;;;;;6.65;3.83;;;384.40;1510.40;;;;;;4974245;28;20106;-68
2021/03/14 08:13:17;;;;;;;8.20;4.47;;;384.30;1587.20;;;;;;4973125;28;20035;-66
2021/03/14 08:15:43;;;;;;;9.77;4.80;;;384.20;1612.80;;;;;;4972586;28;20026;-68
2021/03/14 08:18:37;;;;;;;9.10;4.10;;;384.20;1612.80;;;;;;4973855;28;20447;-75
2021/03/14 08:21:04;;;;;;;8.15;5.13;;;384.20;1612.80;;;;;;4972381;28;20098;-68
2021/03/14 08:23:41;;;;;;;6.38;3.25;;;384.20;1638.40;;;;;;4972478;28;20031;-68
2021/03/14 08:26:16;;;;;;;7.78;3.28;;;;;;;;;;4972683;28;20042;-69
2021/03/14 08:28:52;;;;;;;8.18;3.50;;;359.30;1612.80;;;;;;4972364;28;20085;-69
2021/03/14 08:31:41;;;;;;;6.28;3.22;;;359.00;1638.40;;;;;;4967993;28;20026;-74
2021/03/14 08:34:11;;;;;;;5.95;3.47;;;358.90;1664.00;;;;;;4973336;28;20034;-70
2021/03/14 08:36:41;;;;;;;6.68;3.90;;;358.90;1664.00;;;;;;4967971;28;20045;-70
2021/03/14 08:39:25;;;;;;;8.10;4.25;;;358.70;1664.00;;;;;;4971461;28;20436;-76
2021/03/14 08:41:58;;;;;;;7.22;4.30;;;358.70;1664.00;;;;;;4971213;28;20477;-69
2021/03/14 08:44:44;;;;;;;8.43;5.47;;;358.60;1715.20;;;;;;4968506;28;20074;-68
2021/03/14 08:47:10;;;;;;;8.30;5.28;;;358.80;1715.20;;;;;;4965209;28;20023;-70
2021/03/14 08:49:39;;;;;;;10.63;5.28;;;359.10;1715.20;;;;;;4973551;28;20023;-68
2021/03/14 08:52:08;;;;;;;12.10;6.20;;;384.20;1664.00;;;;;;4970617;28;20035;-70
2021/03/14 08:54:36;;;;;;;11.02;6.38;;;384.60;1664.00;;;;;;4968654;28;20154;-67
2021/03/14 08:57:08;;;;;;;14.93;7.55;;;409.60;1638.40;;;;;;4973710;28;20018;-68
2021/03/14 08:59:34;;;;;;;9.00;4.95;;;409.60;1612.80;;;;;;4966180;28;20488;-67
2021/03/14 09:02:02;;;;;;;7.05;4.18;;;384.90;1561.60;;;;;;4975253;28;20042;-75
2021/03/14 09:04:34;;;;;;;8.32;4.35;;;384.50;1561.60;;;;;;4971768;28;20043;-70
2021/03/14 09:07:02;;;;;;;7.35;4.20;;;384.20;1587.20;;;;;;4971134;28;20041;-74
2021/03/14 09:09:28;;;;;;;11.80;5.15;;;384.00;1638.40;;;;;;4972604;28;20495;-68
2021/03/14 09:11:58;;;;;;;9.10;3.40;;;359.20;1817.60;;;;;;4972425;28;20031;-72
2021/03/14 09:14:28;;;;;;;7.82;3.80;;;358.90;1868.80;;;;;;4967328;28;20027;-78
2021/03/14 09:17:05;;;;;;;8.73;4.40;;;358.90;1843.20;;;;;;4972946;28;20054;-68
2021/03/14 09:19:43;;;;;;;7.28;4.60;;;359.10;1894.40;;;;;;4970842;28;20082;-66
2021/03/14 09:22:24;;;;;;;8.63;4.22;;;384.10;1868.80;;;;;;4969637;28;20035;-69
2021/03/14 09:24:51;;;;;;;10.35;5.30;;;384.60;1868.80;;;;;;4972088;28;20453;-69
2021/03/14 09:27:20;;;;;;;11.13;5.50;;;384.70;1843.20;;;;;;4971000;28;20030;-69
2021/03/14 09:29:46;;;;;;;12.73;5.68;;;409.80;1817.60;;;;;;4975507;28;20031;-69
2021/03/14 09:32:24;;;;;;;11.45;6.35;;;409.90;1792.00;;;;;;4971746;28;20481;-72
2021/03/14 09:35:09;;;;;;;48.80;25.45;;;410.10;1766.40;;;;;;4971390;28;20042;-69
2021/03/14 09:37:35;;;;;;;54.75;31.83;;;410.20;1740.80;;;;;;4971589;28;20027;-69
2021/03/14 09:40:12;;;;;;;55.63;35.20;;;410.40;1689.60;;;;;;4972309;28;20113;-68
2021/03/14 09:42:39;;;;;;;105.97;55.15;;;410.50;1664.00;;;;;;4971750;28;20418;-68
2021/03/14 09:45:15;;;;;;;137.35;79.72;;;435.20;1664.00;;;;;;4971279;28;20117;-75
2021/03/14 09:48:05;;;;;;;91.07;58.85;;;435.20;1638.40;;;;;;4973717;28;20106;-68
2021/03/14 09:50:38;;;;;;;135.65;88.88;;;435.50;1638.40;;;;;;4967300;28;20093;-65
2021/03/14 09:53:06;;;;;;;35.67;26.42;;;435.60;1612.80;;;;;;4970594;28;20047;-71
2021/03/14 09:55:56;;;;;;;22.02;15.23;;;435.60;1612.80;;;;;;4971571;28;20081;-67
2021/03/14 09:58:24;;;;;;;48.58;29.15;;;435.50;1561.60;;;;;;4950601;28;20114;-72
2021/03/14 10:00:52;;;;;;;23.48;14.45;;;435.50;1587.20;;;;;;4951914;28;20135;-66
2021/03/14 10:03:25;;;;;;;49.78;29.38;;;435.20;1561.60;;;;;;4949558;28;20458;-70
2021/03/14 10:05:52;;;;;;;41.22;25.73;;;410.40;1587.20;;;;;;4949500;29;20078;-68
2021/03/14 10:08:21;;;;;;;27.30;18.08;;;410.30;1587.20;;;;;;4950593;29;20035;-68
2021/03/14 10:10:49;;;;;;;28.35;18.10;;;410.20;1612.80;;;;;;4945656;29;20037;-67
2021/03/14 10:13:15;;;;;;;32.75;21.75;;;410.10;1587.20;;;;;;4951406;28;20505;-67
2021/03/14 10:15:42;;;;;;;18.05;10.95;;;410.20;1612.80;;;;;;4949437;28;20070;-69
2021/03/14 10:18:08;;;;;;;16.77;9.30;;;410.10;1612.80;;;;;;4949483;28;20035;-71
2021/03/14 10:20:36;;;;;;;18.30;9.85;;;410.00;1612.80;;;;;;4950514;29;20456;-68
2021/03/14 10:23:06;;;;;;;15.88;8.02;;;410.20;1612.80;;;;;;4950388;29;20473;-72
2021/03/14 10:25:37;;;;;;;12.90;6.10;;;410.30;1561.60;;;;;;4955568;28;20031;-72
2021/03/14 10:28:10;;;;;;;47.03;30.88;;;410.40;1561.60;;;;;;4959360;28;20073;-68
2021/03/14 10:30:37;;;;;;;37.78;24.92;;;410.50;1536.00;;;;;;4950914;28;20167;-71
2021/03/14 10:33:03;;;;;;;23.60;12.88;;;435.40;1510.40;;;;;;4954155;28;20255;-67
2021/03/14 10:35:29;;;;;;;35.60;22.33;;;435.50;1536.00;;;;;;4964688;28;20097;-66
2021/03/14 10:37:55;;;;;;;26.63;16.52;;;435.70;1536.00;;;;;;4976151;28;20069;-69
2021/03/14 10:40:24;;;;;;;25.23;16.95;;;435.90;1459.20;;;;;;4978517;28;20050;-67
2021/03/14 10:42:52;;;;;;;26.50;15.98;;;460.90;1510.40;;;;;;4971461;28;20026;-81
2021/03/14 10:45:23;;;;;;;21.83;10.30;;;461.20;1459.20;;;;;;4967299;28;20018;-76
2021/03/14 10:48:04;;;;;;;12.50;5.80;;;461.50;1433.60;;;;;;4967010;28;20114;-71
2021/03/14 10:50:33;;;;;;;12.43;4.78;;;461.70;1408.00;;;;;;4967065;28;20023;-70
2021/03/14 10:53:16;;;;;;;13.05;6.13;;;486.40;1356.80;;;;;;4965724;28;20043;-72
2021/03/14 10:55:43;;;;;;;12.60;6.43;;;;;;;;;;4965560;28;20023;-70
2021/03/14 10:58:10;;;;;;;9.95;5.72;;;486.50;1305.60;;;;;;4973931;28;20066;-70
2021/03/14 11:00:38;;;;;;;7.65;4.43;;;461.70;1356.80;;;;;;4965561;28;20019;-70
2021/03/14 11:03:14;;;;;;;12.98;5.40;;;486.40;1305.60;;;;;;4972040;28;20061;-70
2021/03/14 11:05:42;;;;;;;19.10;9.75;;;486.60;1356.80;;;;;;4973082;28;20034;-72
2021/03/14 11:08:08;;;;;;;20.77;12.07;;;486.60;1331.20;;;;;;4973329;28;20107;-74
2021/03/14 11:10:33;;;;;;;15.43;7.40;;;486.70;1305.60;;;;;;4976672;28;20043;-73
2021/03/14 11:12:59;;;;;;;14.77;8.98;;;486.60;1280.00;;;;;;4974172;28;20911;-67
2021/03/14 11:15:26;;;;;;;12.57;6.70;;;486.60;1280.00;;;;;;4960576;28;20045;-69
2021/03/14 11:17:54;;;;;;;9.60;4.03;;;486.50;1254.40;;;;;;4974416;28;20385;-68
2021/03/14 11:20:21;;;;;;;8.18;3.30;;;486.50;1254.40;;;;;;4974627;28;20033;-69
2021/03/14 11:22:51;;;;;;;8.25;4.25;;;461.60;1280.00;;;;;;4989227;28;20030;-69
2021/03/14 11:25:17;;;;;;;15.40;4.20;;;461.50;1280.00;;;;;;4975242;28;20524;-67
2021/03/14 11:27:44;;;;;;;14.57;5.00;;;461.50;1305.60;;;;;;4974568;28;20441;-68
2021/03/14 11:30:10;;;;;;;8.38;3.30;;;461.70;1305.60;;;;;;4977019;28;20023;-70
2021/03/14 11:32:36;;;;;;;11.75;4.45;;;486.40;1254.40;;;;;;4974661;28;20023;-68
2021/03/14 11:35:03;;;;;;;24.92;8.88;;;461.60;1228.80;;;;;;4977089;28;20499;-69
2021/03/14 11:37:28;;;;;;;72.75;21.67;;;461.70;1587.20;;;;;;4973410;28;20497;-68
2021/03/14 11:39:54;;;;;;;21.63;9.32;;;486.40;1356.80;;;;;;4974861;28;20053;-68
2021/03/14 11:42:21;;;;;;;123.15;43.47;;;461.70;1254.40;;;;;;4988963;28;20121;-69
2021/03/14 11:44:46;;;;;;;28.63;8.43;;;486.50;1331.20;;;;;;4974858;28;20057;-70
2021/03/14 11:47:12;;;;;;;14.00;4.82;;;486.60;1280.00;;;;;;4974201;28;20734;-74
2021/03/14 11:49:38;;;;;;;10.45;4.18;;;486.70;1228.80;;;;;;4972653;28;20031;-71
2021/03/14 11:52:04;;;;;;;11.13;4.53;;;486.60;1203.20;;;;;;4973506;28;20031;-72
2021/03/14 11:54:30;;;;;;;14.73;4.78;;;486.40;1203.20;;;;;;4973840;28;20385;-69
2021/03/14 11:56:55;;;;;;;8.05;4.07;;;486.50;1203.20;;;;;;4974286;28;20025;-67
2021/03/14 11:59:21;;;;;;;9.55;4.43;;;486.50;1203.20;;;;;;4972785;28;20031;-70
2021/03/14 12:01:49;;;;;;;13.07;4.38;;;486.70;1254.40;;;;;;4973967;28;20453;-69
2021/03/14 12:04:17;;;;;;;6.40;3.30;;;486.90;1177.60;;;;;;4973096;28;20392;-68
2021/03/14 12:06:43;;;;;;;8.07;4.07;;;487.20;1177.60;;;;;;4963232;28;20533;-72
2021/03/14 12:09:09;;;;;;;9.57;4.60;;;487.30;1126.40;;;;;;4973267;28;20448;-72
2021/03/14 12:11:35;;;;;;;12.77;5.70;;;486.90;1152.00;;;;;;4977103;28;20451;-70
2021/03/14 12:14:01;;;;;;;8.95;4.32;;;486.70;1152.00;;;;;;4972854;28;20081;-73
2021/03/14 12:16:27;;;;;;;9.27;3.70;;;486.80;1177.60;;;;;;4971993;28;20019;-75
2021/03/14 12:18:54;;;;;;;6.38;3.60;;;486.70;1152.00;;;;;;4977414;28;20073;-72
2021/03/14 12:21:20;;;;;;;6.55;3.42;;;486.70;1152.00;;;;;;4974062;28;20383;-68
2021/03/14 12:23:45;;;;;;;7.22;3.45;;;486.70;1203.20;;;;;;4974178;28;20547;-66